This is the latest recevied weather packets stored in our database for station/object K4PAR-1. If no packets are shown the sender has not sent any weather packets the latest 10 day(s).
| Time | Temp. | Humidity | Pressure | Rain* | Wind** | Luminosity | Snow |
|---|---|---|---|---|---|---|---|
| 1788023504 | 28.33° C | - | - | 0 mm | 2.24 m/s, 101° | - | - |
| 1788023262 | 28.33° C | - | - | 0 mm | 2.68 m/s, 359° | - | - |
| 1788023028 | 30° C | - | - | 0 mm | 0.45 m/s, 228° | - | - |
| 1788022777 | 28.89° C | - | - | 0 mm | 0.45 m/s, 274° | - | - |
| 1788022534 | 27.78° C | - | - | 0 mm | 2.24 m/s, 278° | - | - |
| 1788022292 | 27.22° C | - | - | 0 mm | 2.24 m/s, 300° | - | - |
| 1788021807 | 28.89° C | - | - | 0 mm | 1.79 m/s, 262° | - | - |
| 1788021322 | 28.33° C | - | - | 0 mm | 0.89 m/s, 231° | - | - |
| 1788021080 | 27.78° C | - | - | 0 mm | 2.68 m/s, 269° | - | - |
| 1788020837 | 28.89° C | - | - | 0 mm | 2.24 m/s, 152° | - | - |
| 1788020626 | 28.89° C | - | - | 0 mm | 0 m/s | - | - |
| 1788020594 | 28.89° C | - | - | 0 mm | 0 m/s | - | - |
| 1788020352 | 28.89° C | - | - | 0 mm | 0 m/s | - | - |
| 1788019867 | 27.78° C | - | - | 0 mm | 0 m/s | - | - |
| 1788019625 | 27.22° C | - | - | 0 mm | 1.79 m/s, 207° | - | - |
| 1788019382 | 28.33° C | - | - | 0 mm | 0 m/s | - | - |
| 1788019140 | 27.78° C | - | - | 0 mm | 1.79 m/s, 287° | - | - |
| 1788018897 | 27.22° C | - | - | 0 mm | 2.24 m/s, 242° | - | - |
| 1788018655 | 27.22° C | - | - | 0 mm | 1.79 m/s, 69° | - | - |
| 1788018413 | 26.67° C | - | - | 0 mm | 0 m/s | - | - |
| 1788018170 | 26.67° C | - | - | 0 mm | 0 m/s | - | - |
| 1788017928 | 27.22° C | - | - | 0 mm | 0 m/s | - | - |
| 1788017685 | 27.22° C | - | - | 0 mm | 0 m/s | - | - |
| 1788017481 | 27.78° C | - | - | 0 mm | 0.89 m/s, 218° | - | - |
| 1788017443 | 27.78° C | - | - | 0 mm | 0.89 m/s, 218° | - | - |
* Rain latest hour (hover to see other rain measurements)
** Current wind speed in m/s (hover to see current wind gust speed)